Time;durP1;ratioP1;P1;durP2;ratioP2;P2;SDS_P1;SDS_P2;PMS_P1;PMS_P2;Temp;Humidity;BMP_temperature;BMP_pressure;BME280_temperature;BME280_humidity;BME280_pressure;Samples;Min_cycle;Max_cycle;Signal;HPM_P1;HPM_P2
2021/10/15 00:01:40;;;;;;;3.88;2.20;;;;;;;18.67;63.20;101666.81;4887072;29;20463;-76
2021/10/15 00:04:06;;;;;;;4.20;2.30;;;;;;;18.68;63.19;101653.78;4872032;29;20036;-77
2021/10/15 00:06:31;;;;;;;4.20;2.20;;;;;;;18.68;63.31;101645.97;4871902;29;20035;-78
2021/10/15 00:08:57;;;;;;;3.72;2.10;;;;;;;18.68;63.32;101635.53;4902941;29;20024;-75
2021/10/15 00:11:22;;;;;;;4.18;2.45;;;;;;;18.69;63.21;101639.00;4856449;29;20029;-76
2021/10/15 00:13:48;;;;;;;4.05;2.10;;;;;;;18.69;63.09;101631.19;4902909;29;20033;-77
2021/10/15 00:16:13;;;;;;;4.78;2.53;;;;;;;18.68;63.29;101626.81;4885634;29;20385;-76
2021/10/15 00:18:39;;;;;;;5.20;2.20;;;;;;;18.69;63.24;101628.56;4899704;29;20024;-77
2021/10/15 00:21:23;;;;;;;3.22;1.95;;;;;;;18.69;63.24;101633.78;4868820;29;20036;-78
2021/10/15 00:23:48;;;;;;;4.20;2.30;;;;;;;18.68;63.13;101638.13;4899810;29;20077;-77
2021/10/15 00:26:14;;;;;;;4.47;2.40;;;;;;;18.67;63.07;101625.97;4868826;29;20037;-78
2021/10/15 00:28:39;;;;;;;3.22;1.90;;;;;;;18.69;63.12;101624.22;4868583;29;20474;-76
2021/10/15 00:31:05;;;;;;;3.47;2.20;;;;;;;18.68;63.27;101616.38;4901325;29;20081;-77
2021/10/15 00:33:30;;;;;;;3.22;2.20;;;;;;;18.68;62.85;101612.06;4901023;29;20080;-76
2021/10/15 00:35:56;;;;;;;2.75;1.90;;;;;;;18.68;63.22;101593.81;4900908;29;20036;-77
2021/10/15 00:38:21;;;;;;;3.42;2.03;;;;;;;18.67;63.11;101592.06;4868576;29;20037;-75
2021/10/15 00:40:47;;;;;;;3.90;2.15;;;;;;;18.68;63.07;101604.25;4899505;29;20478;-75
2021/10/15 00:43:12;;;;;;;3.88;2.22;;;;;;;18.68;63.09;101603.34;4868681;29;20043;-76
2021/10/15 00:45:38;;;;;;;2.70;1.70;;;;;;;18.67;63.19;101602.50;4883886;29;20100;-77
2021/10/15 00:48:03;;;;;;;5.25;2.30;;;;;;;18.67;63.19;101602.50;4868509;29;20036;-78
2021/10/15 00:50:29;;;;;;;3.50;1.88;;;;;;;18.68;63.25;101603.34;4868412;29;20032;-77
2021/10/15 00:52:55;;;;;;;6.55;2.05;;;;;;;18.67;63.27;101602.50;4883471;29;20081;-77
2021/10/15 00:55:20;;;;;;;3.00;2.03;;;;;;;18.66;63.17;101585.13;4868451;29;20071;-77
2021/10/15 00:57:46;;;;;;;3.30;2.00;;;;;;;18.67;63.09;101592.06;4900146;29;20056;-78
2021/10/15 01:00:12;;;;;;;3.55;1.92;;;;;;;18.67;63.07;101584.25;4883117;29;20060;-76
2021/10/15 01:02:37;;;;;;;3.60;2.00;;;;;;;18.68;63.41;101579.91;4867989;29;20041;-77
2021/10/15 01:05:04;;;;;;;3.03;2.05;;;;;;;18.67;63.23;101580.78;4883673;29;20036;-76
2021/10/15 01:07:30;;;;;;;3.83;2.13;;;;;;;18.67;63.08;101575.56;4900098;29;20055;-78
2021/10/15 01:09:57;;;;;;;3.70;2.05;;;;;;;18.68;63.30;101574.69;4898783;29;20067;-77
2021/10/15 01:12:23;;;;;;;3.40;1.80;;;;;;;18.67;63.13;101571.22;4867759;29;20033;-77
2021/10/15 01:14:48;;;;;;;3.50;2.03;;;;;;;18.67;63.18;101573.81;4883406;29;20024;-77
2021/10/15 01:17:14;;;;;;;5.00;2.20;;;;;;;18.66;63.10;101572.09;4883531;29;20096;-77
2021/10/15 01:19:39;;;;;;;3.15;1.88;;;;;;;18.67;63.10;101573.81;4883298;29;20033;-77
2021/10/15 01:22:07;;;;;;;2.63;1.88;;;;;;;18.66;63.13;101560.78;4883272;29;20036;-76
2021/10/15 01:24:34;;;;;;;3.42;2.08;;;;;;;18.66;63.01;101569.50;4898606;29;20092;-77
2021/10/15 01:27:07;;;;;;;4.45;2.10;;;;;;;18.66;63.03;101566.00;4883237;29;20028;-78
2021/10/15 01:29:34;;;;;;;4.30;1.88;;;;;;;18.66;63.20;101561.66;4899595;29;20039;-78
2021/10/15 01:32:00;;;;;;;3.35;1.92;;;;;;;18.65;63.26;101567.75;4898574;29;20080;-77
2021/10/15 01:34:25;;;;;;;4.97;2.00;;;;;;;18.66;62.92;101556.47;4899649;29;20032;-77
2021/10/15 01:36:51;;;;;;;4.10;2.00;;;;;;;18.65;63.21;101559.91;4867383;29;20028;-76
2021/10/15 01:39:16;;;;;;;3.30;1.98;;;;;;;18.66;63.15;101555.56;4867532;29;20131;-76
2021/10/15 01:41:42;;;;;;;3.78;1.88;;;;;;;18.66;63.00;101551.25;4867475;29;20554;-76
2021/10/15 01:44:07;;;;;;;2.97;1.73;;;;;;;18.66;63.26;101546.03;4883040;29;20040;-77
2021/10/15 01:46:33;;;;;;;3.42;1.80;;;;;;;18.65;63.19;101544.28;4882630;29;20206;-77
2021/10/15 01:48:58;;;;;;;3.33;1.90;;;;;;;18.66;63.20;101555.56;4882712;29;20033;-76
2021/10/15 01:51:24;;;;;;;3.58;1.90;;;;;;;18.66;63.20;101537.31;4882768;29;20021;-76
2021/10/15 01:53:49;;;;;;;3.67;2.08;;;;;;;18.65;63.17;101533.84;4866938;29;20485;-76
2021/10/15 01:56:15;;;;;;;4.43;2.00;;;;;;;18.66;63.19;101535.59;4899223;29;20046;-77
2021/10/15 01:58:40;;;;;;;3.70;1.98;;;;;;;18.66;63.20;101532.09;4882514;29;20135;-77
2021/10/15 02:03:49;;;;;;;3.35;1.85;;;;;;;18.66;63.20;101532.09;4885757;29;20046;-79
2021/10/15 02:06:15;;;;;;;2.78;1.90;;;;;;;18.66;63.05;101527.78;4899682;29;20024;-78
2021/10/15 02:08:40;;;;;;;3.10;1.90;;;;;;;18.65;63.18;101522.56;4882833;29;20029;-77
2021/10/15 02:11:05;;;;;;;2.85;1.70;;;;;;;18.65;63.21;101517.34;4882541;29;20438;-77
2021/10/15 02:13:31;;;;;;;3.58;1.90;;;;;;;18.64;63.28;101513.88;4866876;29;20500;-76
2021/10/15 02:15:59;;;;;;;2.80;1.90;;;;;;;18.66;63.08;101511.25;4882141;29;20037;-76
2021/10/15 02:18:24;;;;;;;3.65;1.77;;;;;;;18.64;63.00;101506.06;4882001;29;20052;-75
2021/10/15 02:20:49;;;;;;;3.65;2.00;;;;;;;18.66;63.02;101506.03;4851017;29;20060;-76
2021/10/15 02:23:15;;;;;;;3.25;1.77;;;;;;;18.64;63.05;101494.75;4882024;29;20052;-77
2021/10/15 02:25:40;;;;;;;3.28;1.70;;;;;;;18.64;63.05;101495.63;4882304;29;20029;-77
2021/10/15 02:28:06;;;;;;;3.15;1.70;;;;;;;18.64;63.28;101493.03;4882151;29;20032;-76
2021/10/15 02:30:31;;;;;;;2.85;1.60;;;;;;;18.64;63.02;101490.41;4882123;29;20029;-76
2021/10/15 02:32:57;;;;;;;4.50;2.00;;;;;;;18.65;63.11;101491.28;4850973;29;20033;-76
2021/10/15 02:35:22;;;;;;;4.20;1.90;;;;;;;18.65;63.12;101488.66;4866148;29;20033;-77
2021/10/15 02:37:47;;;;;;;4.72;1.77;;;;;;;18.65;63.13;101484.31;4881861;29;20036;-77
2021/10/15 02:40:14;;;;;;;2.25;1.70;;;;;;;18.64;63.08;101487.81;4881537;29;20604;-76
2021/10/15 02:42:40;;;;;;;3.35;1.80;;;;;;;18.65;63.06;101484.31;4881850;29;20120;-77
2021/10/15 02:45:07;;;;;;;2.88;1.83;;;;;;;18.65;63.19;101475.63;4898531;29;20029;-78
2021/10/15 02:47:32;;;;;;;2.95;1.67;;;;;;;18.64;63.24;101473.88;4897274;29;20557;-77
2021/10/15 02:49:58;;;;;;;3.75;1.83;;;;;;;18.64;63.13;101461.75;4881857;29;20149;-77
2021/10/15 02:52:23;;;;;;;2.95;1.73;;;;;;;18.65;63.24;101475.63;4881826;29;20060;-78
2021/10/15 02:54:48;;;;;;;3.35;1.90;;;;;;;18.64;63.14;101471.28;4881921;29;20390;-77
2021/10/15 02:57:14;;;;;;;2.35;1.60;;;;;;;18.63;63.31;101470.41;4882083;29;20056;-76
2021/10/15 02:59:39;;;;;;;2.72;1.80;;;;;;;18.65;63.10;101473.03;4881823;29;20049;-77
2021/10/15 03:02:05;;;;;;;4.53;1.95;;;;;;;18.63;63.19;101470.41;4881574;29;20470;-76
2021/10/15 03:04:30;;;;;;;3.63;1.77;;;;;;;18.64;62.94;101469.56;4897080;29;20028;-77
2021/10/15 03:06:58;;;;;;;3.70;1.60;;;;;;;18.64;63.23;101472.16;4881539;29;20393;-75
2021/10/15 03:09:24;;;;;;;3.15;1.88;;;;;;;18.64;63.15;101463.47;4881550;29;20037;-76
2021/10/15 03:11:50;;;;;;;3.15;1.83;;;;;;;18.63;63.12;101470.41;4866164;29;20029;-78
2021/10/15 03:14:15;;;;;;;3.95;1.75;;;;;;;18.64;63.23;101473.88;4881560;29;20043;-76
2021/10/15 03:16:41;;;;;;;2.65;1.40;;;;;;;18.64;62.98;101474.78;4850452;29;20029;-77
2021/10/15 03:19:06;;;;;;;3.35;1.80;;;;;;;18.63;63.07;101475.63;4850540;29;20036;-77
2021/10/15 03:21:32;;;;;;;2.63;1.30;;;;;;;18.63;62.88;101467.81;4865842;29;20055;-77
2021/10/15 03:23:57;;;;;;;2.25;1.67;;;;;;;18.63;63.21;101467.81;4881531;29;20118;-77
2021/10/15 03:26:22;;;;;;;2.90;1.67;;;;;;;18.63;63.13;101462.59;4850280;29;20063;-76
2021/10/15 03:28:48;;;;;;;4.55;1.70;;;;;;;18.63;62.98;101464.34;4896731;29;20369;-77
2021/10/15 03:31:13;;;;;;;3.40;1.70;;;;;;;18.63;63.06;101448.72;4881611;29;20028;-77
2021/10/15 03:33:41;;;;;;;3.60;1.60;;;;;;;18.62;63.06;101453.06;4865917;29;20033;-78
2021/10/15 03:36:07;;;;;;;2.63;1.48;;;;;;;18.64;63.22;101450.41;4866039;29;20072;-78
2021/10/15 03:38:32;;;;;;;3.28;1.80;;;;;;;18.63;63.06;101453.91;4896675;29;20037;-76
2021/10/15 03:40:58;;;;;;;2.33;1.50;;;;;;;18.63;63.16;101470.41;4881160;29;20028;-77
2021/10/15 03:43:23;;;;;;;3.63;1.63;;;;;;;18.62;63.13;101455.66;4865995;29;20501;-79
2021/10/15 03:45:49;;;;;;;3.30;1.83;;;;;;;18.62;63.09;101455.66;4896711;29;20064;-76
2021/10/15 03:48:14;;;;;;;2.78;1.58;;;;;;;18.63;63.30;101449.56;4881697;29;20077;-78
2021/10/15 03:50:42;;;;;;;3.45;1.60;;;;;;;18.63;63.15;101451.31;4866122;29;20021;-79
2021/10/15 03:53:08;;;;;;;4.05;1.80;;;;;;;18.63;63.14;101452.16;4884046;29;20116;-77
2021/10/15 03:55:33;;;;;;;3.13;1.77;;;;;;;18.63;63.19;101451.31;4901542;29;20168;-79
2021/10/15 03:58:04;;;;;;;2.38;1.60;;;;;;;18.63;63.13;101464.34;4884677;29;20032;-77
2021/10/15 04:00:30;;;;;;;3.78;1.80;;;;;;;18.62;63.07;101455.66;4899801;29;20052;-77
2021/10/15 04:02:55;;;;;;;2.58;1.27;;;;;;;18.62;63.24;101458.28;4884408;29;20029;-76
2021/10/15 04:05:21;;;;;;;2.72;1.45;;;;;;;18.62;63.07;101470.44;4853583;29;20059;-78
2021/10/15 04:07:46;;;;;;;2.63;1.55;;;;;;;18.61;63.07;101464.34;4853602;29;20397;-78
2021/10/15 04:10:12;;;;;;;3.80;1.50;;;;;;;18.63;63.19;101470.41;4884769;29;20037;-76
2021/10/15 04:12:37;;;;;;;2.70;1.58;;;;;;;18.62;63.23;101468.69;4884345;29;20116;-78
2021/10/15 04:15:05;;;;;;;3.80;1.88;;;;;;;18.62;63.21;101463.50;4884476;29;20099;-77
2021/10/15 04:17:31;;;;;;;3.40;1.83;;;;;;;18.61;63.01;101458.28;4900914;29;20033;-78
2021/10/15 04:19:56;;;;;;;2.90;1.60;;;;;;;18.61;63.16;101456.53;4853391;29;20044;-78
2021/10/15 04:22:24;;;;;;;3.10;1.60;;;;;;;18.61;63.21;101451.31;4868681;29;20120;-77
2021/10/15 04:24:49;;;;;;;2.45;1.42;;;;;;;18.61;63.07;101448.69;4869442;29;20024;-78
2021/10/15 04:27:15;;;;;;;2.47;1.50;;;;;;;18.62;63.13;101452.19;4884336;29;20096;-77
2021/10/15 04:29:40;;;;;;;3.25;1.45;;;;;;;18.61;63.11;101451.31;4884282;29;20028;-78
2021/10/15 04:32:06;;;;;;;2.95;1.65;;;;;;;18.61;63.13;101453.91;4852933;29;20032;-79
2021/10/15 04:34:31;;;;;;;2.70;1.50;;;;;;;18.61;63.24;101445.25;4853358;29;20556;-78
2021/10/15 04:36:56;;;;;;;3.53;1.60;;;;;;;18.61;63.30;101450.44;4868421;29;20032;-79
2021/10/15 04:39:22;;;;;;;2.47;1.75;;;;;;;18.60;63.00;101462.63;4868479;29;20397;-77
2021/10/15 04:41:47;;;;;;;3.08;1.70;;;;;;;18.62;63.05;101455.66;4852853;29;20025;-78
2021/10/15 04:44:13;;;;;;;2.45;1.52;;;;;;;18.61;63.10;101450.44;4883679;29;20039;-77
2021/10/15 04:46:39;;;;;;;2.65;1.50;;;;;;;18.61;63.25;101453.06;4883932;29;20035;-75
2021/10/15 04:49:04;;;;;;;3.80;1.63;;;;;;;18.61;63.15;101458.28;4883680;29;20481;-76
2021/10/15 04:51:30;;;;;;;3.20;1.60;;;;;;;18.61;63.07;101455.66;4868070;29;20438;-76
2021/10/15 04:53:55;;;;;;;3.15;1.60;;;;;;;18.59;63.11;101463.47;4868353;29;20120;-78
2021/10/15 04:56:21;;;;;;;3.90;1.55;;;;;;;18.60;63.43;101469.59;4867946;29;20044;-77
2021/10/15 04:58:46;;;;;;;3.05;1.70;;;;;;;18.59;63.16;101471.28;4868527;29;20211;-76
2021/10/15 05:01:11;;;;;;;2.58;1.52;;;;;;;18.59;63.11;101467.84;4852546;29;20451;-76
2021/10/15 05:03:37;;;;;;;2.38;1.38;;;;;;;18.58;62.97;101472.19;4900003;29;20111;-76
2021/10/15 05:06:02;;;;;;;4.80;1.73;;;;;;;18.59;63.15;101462.63;4883691;29;20092;-76
2021/10/15 05:08:31;;;;;;;3.17;1.55;;;;;;;18.59;63.17;101470.44;4883443;29;20139;-76
2021/10/15 05:11:00;;;;;;;4.82;1.60;;;;;;;18.59;63.28;101470.44;4868219;29;20021;-77
2021/10/15 05:13:25;;;;;;;3.55;1.70;;;;;;;18.58;63.21;101466.97;4852418;29;20059;-78
2021/10/15 05:15:54;;;;;;;2.83;1.48;;;;;;;18.58;63.11;101466.13;4867588;29;20067;-78
2021/10/15 05:18:19;;;;;;;3.45;1.55;;;;;;;18.57;63.25;101467.84;4867581;29;20043;-80
2021/10/15 05:20:45;;;;;;;2.92;1.73;;;;;;;18.59;63.26;101462.63;4883132;29;20406;-80
2021/10/15 05:23:11;;;;;;;6.97;3.05;;;;;;;18.58;63.11;101471.31;4867517;29;20087;-84
2021/10/15 05:25:37;;;;;;;13.50;4.22;;;;;;;18.57;63.32;101446.97;4883054;29;20048;-86
2021/10/15 05:28:04;;;;;;;10.68;3.88;;;;;;;18.58;63.20;101447.88;4899055;29;20477;-87
2021/10/15 05:30:30;;;;;;;13.70;4.13;;;;;;;18.59;63.47;101493.91;4883353;29;20055;-81
2021/10/15 05:32:55;;;;;;;13.25;4.18;;;;;;;18.60;63.22;101509.53;4883614;29;20028;-89
2021/10/15 05:35:21;;;;;;;12.32;4.45;;;;;;;18.59;63.33;101515.63;4883502;29;20056;-80
2021/10/15 05:37:46;;;;;;;13.77;4.68;;;;;;;18.60;63.67;101521.72;4882950;29;20496;-79
2021/10/15 05:40:12;;;;;;;11.50;4.50;;;;;;;18.60;63.53;101526.94;4899531;29;20032;-81
2021/10/15 05:42:46;;;;;;;10.93;4.15;;;;;;;18.61;63.47;101526.91;4882970;29;20047;-79
2021/10/15 05:45:13;;;;;;;11.77;3.97;;;;;;;18.61;63.55;101526.03;4898471;29;20032;-79
2021/10/15 05:47:41;;;;;;;9.45;3.58;;;;;;;18.59;63.60;101533.84;4899704;29;20036;-83
2021/10/15 05:50:09;;;;;;;8.05;3.22;;;;;;;18.60;63.65;101538.22;4866610;29;20478;-83
2021/10/15 05:52:46;;;;;;;9.02;3.67;;;;;;;18.61;63.45;101544.28;4867304;29;20143;-82
2021/10/15 06:00:38;;;;;;;9.77;3.42;;;;;;;18.60;63.69;101553.00;4848237;29;20050;-77
2021/10/15 06:03:04;;;;;;;9.07;3.13;;;;;;;18.59;63.84;101561.66;4851543;29;20128;-77
2021/10/15 06:16:36;;;;;;;6.87;2.93;;;;;;;18.60;63.81;101574.72;4899078;29;20043;-76
2021/10/15 06:19:07;;;;;;;7.63;3.17;;;;;;;18.60;63.87;101581.66;4882380;29;20280;-77
2021/10/15 06:21:33;;;;;;;6.82;2.60;;;;;;;18.60;63.86;101579.94;4897644;29;20032;-78
2021/10/15 06:24:00;;;;;;;6.82;2.70;;;;;;;18.60;63.86;101592.97;4866994;29;20032;-79
2021/10/15 06:26:28;;;;;;;4.55;2.55;;;;;;;18.60;64.24;101595.56;4899050;29;20039;-76
2021/10/15 06:28:55;;;;;;;5.03;2.30;;;;;;;18.60;64.13;101602.53;4867185;29;20475;-76
2021/10/15 06:31:21;;;;;;;5.18;2.35;;;;;;;18.60;64.08;101608.59;4881939;29;20085;-77
2021/10/15 06:33:47;;;;;;;8.35;2.53;;;;;;;18.61;64.02;101609.47;4899349;29;20096;-77
2021/10/15 06:36:12;;;;;;;5.45;2.40;;;;;;;18.61;63.94;101617.28;4882294;29;20029;-77
2021/10/15 06:38:38;;;;;;;5.00;2.10;;;;;;;18.63;63.71;101616.41;4882054;29;20032;-79
2021/10/15 06:41:04;;;;;;;4.55;2.00;;;;;;;18.62;64.14;101614.69;4866310;29;20382;-78
2021/10/15 06:43:39;;;;;;;6.43;2.53;;;;;;;18.68;64.10;101619.91;4882059;29;20032;-80
2021/10/15 06:46:04;;;;;;;6.00;2.55;;;;;;;18.79;64.15;101626.84;4866468;29;20455;-79
2021/10/15 06:48:30;;;;;;;5.38;2.55;;;;;;;18.83;64.02;101628.56;4881679;29;20151;-81
2021/10/15 06:50:55;;;;;;;5.55;2.60;;;;;;;18.88;63.98;101637.28;4851063;29;20043;-83
2021/10/15 06:53:21;;;;;;;6.40;2.22;;;;;;;18.90;63.96;101640.72;4866511;29;20063;-81
2021/10/15 06:55:47;;;;;;;7.00;2.58;;;;;;;18.92;64.09;101644.19;4866437;29;20028;-80
2021/10/15 06:58:13;;;;;;;5.65;2.50;;;;;;;18.92;63.89;101646.78;4898688;29;20032;-78
2021/10/15 07:00:39;;;;;;;5.60;2.40;;;;;;;18.92;63.93;101646.78;4881807;29;20049;-79
2021/10/15 07:03:19;;;;;;;8.23;2.20;;;;;;;18.91;64.00;101645.94;4881996;29;20416;-81
2021/10/15 07:05:47;;;;;;;4.78;2.47;;;;;;;18.90;63.89;101649.44;4882628;29;20053;-81
2021/10/15 07:08:13;;;;;;;7.35;2.15;;;;;;;18.89;64.13;101658.09;4882375;29;20052;-81
2021/10/15 07:10:38;;;;;;;5.38;2.28;;;;;;;18.89;64.32;101662.47;4866781;29;20071;-81
2021/10/15 07:13:07;;;;;;;8.07;2.30;;;;;;;18.89;64.25;101668.53;4897791;29;20493;-82
2021/10/15 07:15:33;;;;;;;5.72;2.20;;;;;;;18.88;64.30;101679.88;4866503;29;20028;-84
2021/10/15 07:17:59;;;;;;;6.45;2.70;;;;;;;18.87;64.28;101672.88;4882001;29;20111;-81
2021/10/15 07:20:27;;;;;;;7.75;2.30;;;;;;;18.91;64.18;101682.44;4884014;29;20378;-79
2021/10/15 07:22:59;;;;;;;4.45;2.08;;;;;;;18.96;63.71;101681.56;4904282;29;20478;-82
2021/10/15 07:25:25;;;;;;;5.25;1.70;;;;;;;18.94;63.99;101697.22;4886607;29;20127;-82
2021/10/15 07:27:51;;;;;;;6.10;2.50;;;;;;;18.93;64.09;101692.88;4888889;29;20059;-83
2021/10/15 07:30:17;;;;;;;5.78;2.20;;;;;;;18.94;63.99;101691.16;4908185;29;20438;-82
2021/10/15 07:32:42;;;;;;;4.25;1.90;;;;;;;18.98;63.71;101691.13;4905296;29;20039;-81
2021/10/15 07:35:08;;;;;;;3.70;1.92;;;;;;;19.02;63.65;101694.63;4873108;29;20096;-81
2021/10/15 07:37:36;;;;;;;4.97;2.40;;;;;;;19.03;63.42;101699.84;4901845;29;20036;-80
2021/10/15 07:40:02;;;;;;;6.40;2.38;;;;;;;19.04;63.66;101700.69;4885018;29;20080;-80
2021/10/15 07:42:27;;;;;;;5.10;1.90;;;;;;;19.03;63.54;101705.06;4884869;29;20031;-79
2021/10/15 07:44:53;;;;;;;5.53;2.50;;;;;;;19.02;63.53;101705.91;4869245;29;20036;-80
2021/10/15 07:47:18;;;;;;;4.93;2.40;;;;;;;19.02;63.30;101712.88;4854017;29;20032;-79
2021/10/15 07:49:43;;;;;;;4.15;2.00;;;;;;;19.04;63.30;101712.00;4854251;29;20033;-78
2021/10/15 07:52:09;;;;;;;3.03;1.70;;;;;;;19.09;63.31;101720.66;4869313;29;20470;-78
2021/10/15 07:54:35;;;;;;;4.43;2.10;;;;;;;19.13;62.99;101731.13;4884727;29;20079;-78
2021/10/15 07:57:01;;;;;;;5.60;2.00;;;;;;;19.15;62.97;101730.25;4869505;29;20546;-80
2021/10/15 07:59:29;;;;;;;5.00;2.05;;;;;;;19.21;62.84;101739.81;4869076;29;20057;-80
2021/10/15 08:01:57;;;;;;;3.35;1.73;;;;;;;19.25;62.61;101742.41;4901418;29;20033;-82
2021/10/15 08:04:23;;;;;;;6.70;2.30;;;;;;;19.31;62.60;101750.22;4869343;29;20044;-78
2021/10/15 08:06:50;;;;;;;3.30;1.88;;;;;;;19.44;62.20;101745.81;4869309;29;20040;-81
2021/10/15 08:09:15;;;;;;;4.72;2.20;;;;;;;19.42;62.44;101754.53;4884879;29;20111;-81
2021/10/15 08:11:41;;;;;;;4.85;2.08;;;;;;;19.29;62.67;101766.72;4884548;29;20079;-80
2021/10/15 08:14:06;;;;;;;4.82;2.17;;;;;;;19.26;62.97;101761.53;4885005;29;20047;-80
2021/10/15 08:16:32;;;;;;;5.25;1.98;;;;;;;19.27;62.87;101771.09;4869035;29;20032;-84
2021/10/15 08:18:57;;;;;;;4.68;2.25;;;;;;;19.24;63.12;101773.72;4869171;29;20028;-79
2021/10/15 08:21:22;;;;;;;7.60;2.10;;;;;;;19.30;62.74;101786.75;4853443;29;20037;-78
2021/10/15 08:23:48;;;;;;;9.35;3.45;;;;;;;19.44;62.51;101787.59;4884466;29;20417;-80
2021/10/15 08:26:15;;;;;;;14.38;4.28;;;;;;;19.63;61.99;101793.63;4884259;29;20040;-79
2021/10/15 08:28:41;;;;;;;14.02;4.38;;;;;;;19.53;62.36;101789.31;4868862;29;20119;-81
2021/10/15 08:31:06;;;;;;;12.40;4.22;;;;;;;19.47;62.64;101802.41;4868748;29;20032;-80
2021/10/15 08:33:32;;;;;;;11.05;4.60;;;;;;;19.47;62.71;101799.78;4868948;29;20036;-80
2021/10/15 08:36:00;;;;;;;10.07;4.13;;;;;;;19.51;62.55;101796.25;4899590;29;20553;-79
2021/10/15 08:38:25;;;;;;;8.32;3.70;;;;;;;19.51;62.34;101798.88;4853407;29;20032;-81
2021/10/15 08:41:09;;;;;;;7.72;3.40;;;;;;;19.50;62.53;101799.75;4868569;29;20033;-79
2021/10/15 08:43:37;;;;;;;6.40;2.90;;;;;;;19.48;62.50;101812.81;4883811;29;20096;-79
2021/10/15 08:46:03;;;;;;;8.82;3.33;;;;;;;19.48;62.44;101820.66;4900689;29;20028;-79
2021/10/15 08:48:29;;;;;;;7.65;3.05;;;;;;;19.47;62.53;101825.88;4868400;29;20043;-76
2021/10/15 08:50:56;;;;;;;7.57;3.00;;;;;;;19.46;62.65;101826.75;4900590;29;20032;-77
2021/10/15 08:53:22;;;;;;;6.22;2.95;;;;;;;19.45;62.63;101825.03;4883888;29;20021;-79
2021/10/15 08:55:48;;;;;;;6.53;2.90;;;;;;;19.45;62.55;101823.28;4883817;29;20113;-78
2021/10/15 08:58:13;;;;;;;10.00;2.90;;;;;;;19.43;62.79;101826.75;4868325;29;20033;-78
2021/10/15 09:00:39;;;;;;;7.25;2.63;;;;;;;19.41;62.65;101833.72;4867890;29;20045;-79
2021/10/15 09:03:18;;;;;;;6.15;2.60;;;;;;;19.42;62.51;101838.91;4868096;29;20462;-80
2021/10/15 09:06:13;;;;;;;4.28;2.13;;;;;;;19.44;62.47;101836.31;4883448;29;20067;-77
2021/10/15 09:09:01;;;;;;;5.13;2.55;;;;;;;19.41;62.56;101839.81;4881460;29;20048;-78
2021/10/15 09:11:45;;;;;;;6.85;2.85;;;;;;;19.46;62.36;101843.28;4900455;29;20504;-81
2021/10/15 09:14:13;;;;;;;5.03;2.40;;;;;;;19.49;62.30;101843.28;4900255;29;20084;-78
2021/10/15 09:17:29;;;;;;;4.88;2.33;;;;;;;19.41;62.51;101846.78;4883004;29;20032;-78
2021/10/15 09:20:03;;;;;;;6.90;2.42;;;;;;;19.30;62.85;101860.69;4894135;29;20032;-79
2021/10/15 09:22:32;;;;;;;5.32;2.50;;;;;;;19.26;62.86;101865.91;4899883;29;20115;-77
2021/10/15 09:25:12;;;;;;;5.63;2.45;;;;;;;19.23;62.65;101865.94;4899935;29;20481;-78
2021/10/15 09:27:38;;;;;;;6.40;2.65;;;;;;;19.24;62.68;101872.88;4883633;29;20079;-79
2021/10/15 09:30:09;;;;;;;7.10;2.17;;;;;;;19.25;62.67;101872.00;4899789;29;20031;-81
2021/10/15 09:32:52;;;;;;;5.55;2.30;;;;;;;19.26;62.60;101874.59;4883116;29;20370;-80
2021/10/15 09:35:25;;;;;;;5.22;2.30;;;;;;;19.29;62.63;101874.63;4882969;29;20259;-79
2021/10/15 09:37:55;;;;;;;6.28;2.20;;;;;;;19.36;62.52;101879.81;4882941;29;20032;-82
2021/10/15 09:40:45;;;;;;;8.52;2.40;;;;;;;19.38;62.44;101880.69;4882854;29;20024;-83
2021/10/15 09:43:12;;;;;;;5.50;2.30;;;;;;;19.33;62.39;101878.94;4883492;29;20393;-83
2021/10/15 09:45:41;;;;;;;5.15;2.50;;;;;;;19.33;62.44;101884.16;4898794;29;20028;-83
2021/10/15 09:48:26;;;;;;;6.13;2.30;;;;;;;19.33;62.52;101888.53;4883218;29;20504;-82
2021/10/15 09:51:10;;;;;;;4.53;2.15;;;;;;;19.30;62.70;101892.00;4899669;29;20089;-83
2021/10/15 09:53:39;;;;;;;3.80;2.22;;;;;;;19.27;62.64;101896.34;4899852;29;20028;-81
2021/10/15 09:56:06;;;;;;;6.43;2.53;;;;;;;19.26;62.83;101894.63;4899311;29;20083;-83
2021/10/15 09:58:31;;;;;;;5.95;2.40;;;;;;;19.25;62.64;101895.47;4867043;29;20051;-82
2021/10/15 10:00:57;;;;;;;9.38;2.30;;;;;;;19.25;62.74;101908.53;4851282;29;20505;-80
2021/10/15 10:03:24;;;;;;;10.15;2.15;;;;;;;19.24;62.77;101910.28;4867196;29;20041;-82
2021/10/15 10:05:50;;;;;;;5.88;2.28;;;;;;;19.28;62.54;101908.53;4882604;29;20035;-81
2021/10/15 10:08:17;;;;;;;5.13;2.10;;;;;;;19.29;62.50;101894.63;4882242;29;20123;-82
2021/10/15 10:10:44;;;;;;;5.55;2.45;;;;;;;19.29;62.52;101903.34;4899203;29;20031;-81
2021/10/15 10:13:12;;;;;;;7.00;2.60;;;;;;;19.28;62.54;101914.63;4882129;29;20466;-82
2021/10/15 10:15:39;;;;;;;6.15;2.30;;;;;;;19.27;62.51;101915.50;4866866;29;20378;-80
2021/10/15 10:18:20;;;;;;;5.78;2.30;;;;;;;19.27;62.53;101919.84;4882504;29;20028;-81
2021/10/15 10:20:49;;;;;;;9.15;2.60;;;;;;;19.25;62.63;101922.47;4899167;29;20063;-82
2021/10/15 10:23:35;;;;;;;4.65;2.10;;;;;;;19.23;62.59;101926.81;4898862;29;20130;-81
2021/10/15 10:26:03;;;;;;;5.53;2.40;;;;;;;19.25;62.76;101924.19;4898861;29;20034;-79
2021/10/15 10:28:30;;;;;;;7.35;2.15;;;;;;;19.28;62.49;101935.50;4882039;29;20028;-82
2021/10/15 10:31:05;;;;;;;4.82;2.00;;;;;;;19.29;62.71;101936.38;4898863;29;20488;-82
2021/10/15 10:33:58;;;;;;;5.68;2.15;;;;;;;19.31;62.25;101939.84;4897656;29;20020;-83
2021/10/15 10:36:28;;;;;;;5.50;2.17;;;;;;;19.30;62.46;101938.13;4879144;29;20036;-81
2021/10/15 10:38:53;;;;;;;6.20;2.17;;;;;;;19.29;62.38;101939.88;4882306;29;20051;-83
2021/10/15 10:41:27;;;;;;;3.17;1.90;;;;;;;19.31;62.33;101945.06;4850950;29;20450;-79
2021/10/15 10:43:55;;;;;;;4.45;2.05;;;;;;;19.29;62.33;101947.69;4881906;29;20032;-81
2021/10/15 10:46:26;;;;;;;4.95;2.30;;;;;;;19.25;62.37;101953.78;4881690;29;20031;-81
2021/10/15 10:48:54;;;;;;;4.45;1.90;;;;;;;19.23;62.19;101958.13;4898835;29;20027;-79
2021/10/15 10:51:45;;;;;;;4.82;2.15;;;;;;;19.22;62.50;101958.97;4881734;29;20021;-79
2021/10/15 10:54:29;;;;;;;4.85;1.92;;;;;;;19.26;62.28;101957.25;4894471;29;20474;-80
2021/10/15 10:56:57;;;;;;;3.80;1.92;;;;;;;19.29;62.32;101967.69;4866442;29;20040;-83
2021/10/15 10:59:32;;;;;;;6.15;2.10;;;;;;;19.28;62.20;101976.41;4881290;29;20093;-80
2021/10/15 11:02:12;;;;;;;4.57;2.00;;;;;;;19.26;62.13;101981.59;4896671;29;20457;-81
2021/10/15 11:04:49;;;;;;;3.63;1.58;;;;;;;19.26;62.05;101984.22;4881810;29;20418;-79
2021/10/15 11:07:19;;;;;;;6.07;2.08;;;;;;;19.27;62.04;101990.31;4898345;29;20045;-80
2021/10/15 11:10:00;;;;;;;6.35;1.88;;;;;;;19.26;62.39;101986.81;4881786;29;20406;-81
2021/10/15 11:12:25;;;;;;;5.22;1.85;;;;;;;19.28;62.10;102003.38;4897065;29;20021;-81
2021/10/15 11:15:11;;;;;;;6.40;1.92;;;;;;;19.31;61.76;102007.72;4881507;29;20384;-82
2021/10/15 11:17:55;;;;;;;5.93;2.00;;;;;;;19.29;62.05;102010.34;4881474;29;20036;-81
2021/10/15 11:20:22;;;;;;;6.57;2.13;;;;;;;19.29;61.96;102015.56;4881013;29;20383;-82
2021/10/15 11:22:49;;;;;;;2.88;1.60;;;;;;;19.29;61.76;102012.94;4897197;29;20028;-81
2021/10/15 11:25:15;;;;;;;4.10;1.70;;;;;;;19.31;61.72;102012.94;4881367;29;20029;-83
2021/10/15 11:27:40;;;;;;;4.78;1.70;;;;;;;19.30;61.78;102011.19;4898162;29;20107;-81
2021/10/15 11:30:09;;;;;;;4.18;1.75;;;;;;;19.34;61.67;102012.97;4897057;29;20032;-79
2021/10/15 11:32:40;;;;;;;6.13;1.85;;;;;;;19.35;61.64;102019.91;4896797;29;20021;-82
2021/10/15 11:35:21;;;;;;;4.28;2.00;;;;;;;19.34;61.69;102023.41;4881561;29;20028;-82
2021/10/15 11:37:51;;;;;;;4.88;1.98;;;;;;;19.33;61.54;102027.72;4881259;29;20381;-81
2021/10/15 11:40:24;;;;;;;4.40;1.80;;;;;;;19.32;61.47;102038.19;4881477;29;20064;-81
2021/10/15 11:42:51;;;;;;;2.42;1.35;;;;;;;19.29;61.65;102040.75;4896884;29;20032;-79
2021/10/15 11:45:29;;;;;;;3.38;1.60;;;;;;;19.25;62.04;102042.50;4896882;29;20064;-81
2021/10/15 11:48:07;;;;;;;4.93;1.70;;;;;;;19.24;61.66;102043.38;4897206;29;20120;-79